sensor_id;sensor_type;location;lat;lon;timestamp;P1;durP1;ratioP1;P2;durP2;ratioP2
26325;SDS011;14032;52.510;7.342;2022-09-09T00:04:29;11.57;;;2.33;;
26325;SDS011;14032;52.510;7.342;2022-09-09T00:10:41;7.67;;;2.50;;
26325;SDS011;14032;52.510;7.342;2022-09-09T00:21:38;8.35;;;2.47;;
26325;SDS011;14032;52.510;7.342;2022-09-09T00:24:23;5.65;;;2.50;;
26325;SDS011;14032;52.510;7.342;2022-09-09T00:27:30;5.28;;;2.53;;
26325;SDS011;14032;52.510;7.342;2022-09-09T00:30:20;7.90;;;2.78;;
26325;SDS011;14032;52.510;7.342;2022-09-09T00:32:49;6.25;;;2.80;;
26325;SDS011;14032;52.510;7.342;2022-09-09T00:35:23;10.65;;;2.90;;
26325;SDS011;14032;52.510;7.342;2022-09-09T00:37:53;7.18;;;2.42;;
26325;SDS011;14032;52.510;7.342;2022-09-09T00:41:05;12.18;;;3.10;;
26325;SDS011;14032;52.510;7.342;2022-09-09T00:43:31;7.78;;;2.72;;
26325;SDS011;14032;52.510;7.342;2022-09-09T00:46:21;7.90;;;2.95;;
26325;SDS011;14032;52.510;7.342;2022-09-09T00:52:27;8.23;;;2.20;;
26325;SDS011;14032;52.510;7.342;2022-09-09T00:57:43;5.07;;;2.40;;
26325;SDS011;14032;52.510;7.342;2022-09-09T01:00:21;5.30;;;2.45;;
26325;SDS011;14032;52.510;7.342;2022-09-09T01:10:50;5.43;;;2.08;;
26325;SDS011;14032;52.510;7.342;2022-09-09T01:13:22;6.07;;;2.67;;
26325;SDS011;14032;52.510;7.342;2022-09-09T01:15:50;5.43;;;2.00;;
26325;SDS011;14032;52.510;7.342;2022-09-09T01:18:19;6.72;;;2.25;;
26325;SDS011;14032;52.510;7.342;2022-09-09T01:29:02;6.20;;;2.35;;
26325;SDS011;14032;52.510;7.342;2022-09-09T01:31:33;5.55;;;2.30;;
26325;SDS011;14032;52.510;7.342;2022-09-09T01:34:12;7.10;;;2.45;;
26325;SDS011;14032;52.510;7.342;2022-09-09T01:36:49;5.43;;;2.38;;
26325;SDS011;14032;52.510;7.342;2022-09-09T01:39:29;4.70;;;1.77;;
26325;SDS011;14032;52.510;7.342;2022-09-09T01:41:56;5.20;;;1.98;;
26325;SDS011;14032;52.510;7.342;2022-09-09T01:44:22;4.38;;;1.90;;
26325;SDS011;14032;52.510;7.342;2022-09-09T01:46:49;5.90;;;1.67;;
26325;SDS011;14032;52.510;7.342;2022-09-09T01:49:15;4.53;;;1.65;;
26325;SDS011;14032;52.510;7.342;2022-09-09T01:51:41;4.90;;;1.80;;
26325;SDS011;14032;52.510;7.342;2022-09-09T01:54:09;6.45;;;1.70;;
26325;SDS011;14032;52.510;7.342;2022-09-09T02:02:01;4.38;;;1.63;;
26325;SDS011;14032;52.510;7.342;2022-09-09T02:04:41;3.70;;;1.30;;
26325;SDS011;14032;52.510;7.342;2022-09-09T02:12:45;5.10;;;1.60;;
26325;SDS011;14032;52.510;7.342;2022-09-09T02:16:02;2.97;;;1.58;;
26325;SDS011;14032;52.510;7.342;2022-09-09T02:18:01;4.85;;;1.20;;
26325;SDS011;14032;52.510;7.342;2022-09-09T02:20:33;3.72;;;1.20;;
26325;SDS011;14032;52.510;7.342;2022-09-09T02:23:01;4.22;;;1.75;;
26325;SDS011;14032;52.510;7.342;2022-09-09T02:25:29;6.25;;;1.38;;
26325;SDS011;14032;52.510;7.342;2022-09-09T02:27:55;4.47;;;1.38;;
26325;SDS011;14032;52.510;7.342;2022-09-09T02:30:23;2.20;;;1.13;;
26325;SDS011;14032;52.510;7.342;2022-09-09T02:32:50;2.92;;;1.23;;
26325;SDS011;14032;52.510;7.342;2022-09-09T02:35:19;1.67;;;0.90;;
26325;SDS011;14032;52.510;7.342;2022-09-09T02:37:49;3.08;;;1.10;;
26325;SDS011;14032;52.510;7.342;2022-09-09T02:40:18;2.45;;;0.90;;
26325;SDS011;14032;52.510;7.342;2022-09-09T02:42:46;2.50;;;1.17;;
26325;SDS011;14032;52.510;7.342;2022-09-09T02:45:17;1.35;;;1.00;;
26325;SDS011;14032;52.510;7.342;2022-09-09T02:47:50;5.50;;;1.30;;
26325;SDS011;14032;52.510;7.342;2022-09-09T02:50:29;2.30;;;1.00;;
26325;SDS011;14032;52.510;7.342;2022-09-09T02:55:53;3.67;;;1.58;;
26325;SDS011;14032;52.510;7.342;2022-09-09T02:58:24;2.65;;;1.52;;
26325;SDS011;14032;52.510;7.342;2022-09-09T03:00:50;6.80;;;2.13;;
26325;SDS011;14032;52.510;7.342;2022-09-09T03:03:16;3.95;;;1.90;;
26325;SDS011;14032;52.510;7.342;2022-09-09T03:05:43;9.18;;;2.22;;
26325;SDS011;14032;52.510;7.342;2022-09-09T03:08:09;4.53;;;2.17;;
26325;SDS011;14032;52.510;7.342;2022-09-09T03:10:36;5.43;;;1.95;;
26325;SDS011;14032;52.510;7.342;2022-09-09T03:13:02;4.72;;;1.88;;
26325;SDS011;14032;52.510;7.342;2022-09-09T03:15:29;4.57;;;2.60;;
26325;SDS011;14032;52.510;7.342;2022-09-09T03:17:56;5.28;;;2.60;;
26325;SDS011;14032;52.510;7.342;2022-09-09T03:20:26;6.07;;;2.70;;
26325;SDS011;14032;52.510;7.342;2022-09-09T03:22:53;5.13;;;3.08;;
26325;SDS011;14032;52.510;7.342;2022-09-09T03:25:20;7.68;;;3.30;;
26325;SDS011;14032;52.510;7.342;2022-09-09T03:27:49;8.90;;;3.95;;
26325;SDS011;14032;52.510;7.342;2022-09-09T03:30:15;9.15;;;3.58;;
26325;SDS011;14032;52.510;7.342;2022-09-09T03:32:41;5.53;;;3.05;;
26325;SDS011;14032;52.510;7.342;2022-09-09T03:35:06;7.00;;;3.67;;
26325;SDS011;14032;52.510;7.342;2022-09-09T03:37:32;8.85;;;3.63;;
26325;SDS011;14032;52.510;7.342;2022-09-09T03:39:58;8.90;;;3.92;;
26325;SDS011;14032;52.510;7.342;2022-09-09T03:42:24;5.30;;;3.63;;
26325;SDS011;14032;52.510;7.342;2022-09-09T03:44:50;7.90;;;3.03;;
26325;SDS011;14032;52.510;7.342;2022-09-09T03:47:19;5.88;;;3.28;;
26325;SDS011;14032;52.510;7.342;2022-09-09T03:49:47;4.05;;;3.15;;
26325;SDS011;14032;52.510;7.342;2022-09-09T03:52:13;6.82;;;3.65;;
26325;SDS011;14032;52.510;7.342;2022-09-09T03:54:40;8.90;;;3.47;;
26325;SDS011;14032;52.510;7.342;2022-09-09T03:57:07;6.07;;;3.40;;
26325;SDS011;14032;52.510;7.342;2022-09-09T03:59:33;4.90;;;3.13;;
26325;SDS011;14032;52.510;7.342;2022-09-09T04:02:00;3.88;;;2.97;;
26325;SDS011;14032;52.510;7.342;2022-09-09T04:04:26;6.22;;;3.17;;
26325;SDS011;14032;52.510;7.342;2022-09-09T04:06:52;6.90;;;3.90;;
26325;SDS011;14032;52.510;7.342;2022-09-09T04:09:18;5.60;;;3.78;;
26325;SDS011;14032;52.510;7.342;2022-09-09T04:11:44;6.28;;;3.67;;
26325;SDS011;14032;52.510;7.342;2022-09-09T04:14:11;7.30;;;3.38;;
26325;SDS011;14032;52.510;7.342;2022-09-09T04:16:37;5.30;;;2.92;;
26325;SDS011;14032;52.510;7.342;2022-09-09T04:19:04;4.65;;;2.90;;
26325;SDS011;14032;52.510;7.342;2022-09-09T04:21:31;5.53;;;3.42;;
26325;SDS011;14032;52.510;7.342;2022-09-09T04:23:57;8.10;;;3.88;;
26325;SDS011;14032;52.510;7.342;2022-09-09T04:26:22;4.93;;;4.13;;
26325;SDS011;14032;52.510;7.342;2022-09-09T04:28:48;6.15;;;3.40;;
26325;SDS011;14032;52.510;7.342;2022-09-09T04:31:15;7.53;;;3.97;;
26325;SDS011;14032;52.510;7.342;2022-09-09T04:33:43;7.85;;;4.78;;
26325;SDS011;14032;52.510;7.342;2022-09-09T04:36:09;7.78;;;4.57;;
26325;SDS011;14032;52.510;7.342;2022-09-09T04:38:34;8.70;;;5.05;;
26325;SDS011;14032;52.510;7.342;2022-09-09T04:41:00;5.82;;;4.07;;
26325;SDS011;14032;52.510;7.342;2022-09-09T04:43:26;7.65;;;5.53;;
26325;SDS011;14032;52.510;7.342;2022-09-09T04:45:52;7.60;;;5.30;;
26325;SDS011;14032;52.510;7.342;2022-09-09T04:48:17;8.32;;;5.90;;
26325;SDS011;14032;52.510;7.342;2022-09-09T04:50:44;10.88;;;6.63;;
26325;SDS011;14032;52.510;7.342;2022-09-09T04:53:18;8.48;;;6.45;;
26325;SDS011;14032;52.510;7.342;2022-09-09T04:55:43;10.43;;;6.70;;
26325;SDS011;14032;52.510;7.342;2022-09-09T04:58:09;11.82;;;7.30;;
26325;SDS011;14032;52.510;7.342;2022-09-09T05:00:34;8.80;;;7.63;;
26325;SDS011;14032;52.510;7.342;2022-09-09T05:03:04;11.27;;;6.65;;
26325;SDS011;14032;52.510;7.342;2022-09-09T05:05:31;10.30;;;6.82;;
26325;SDS011;14032;52.510;7.342;2022-09-09T05:08:06;12.27;;;7.32;;
26325;SDS011;14032;52.510;7.342;2022-09-09T05:10:33;9.45;;;6.80;;
26325;SDS011;14032;52.510;7.342;2022-09-09T05:13:01;12.23;;;7.82;;
26325;SDS011;14032;52.510;7.342;2022-09-09T05:15:27;8.65;;;6.65;;
26325;SDS011;14032;52.510;7.342;2022-09-09T05:17:56;10.27;;;8.05;;
26325;SDS011;14032;52.510;7.342;2022-09-09T05:20:24;11.63;;;7.43;;
26325;SDS011;14032;52.510;7.342;2022-09-09T05:22:52;9.05;;;6.78;;
26325;SDS011;14032;52.510;7.342;2022-09-09T05:25:19;15.02;;;7.75;;
26325;SDS011;14032;52.510;7.342;2022-09-09T05:27:44;14.45;;;8.80;;
26325;SDS011;14032;52.510;7.342;2022-09-09T05:30:10;11.75;;;8.57;;
26325;SDS011;14032;52.510;7.342;2022-09-09T05:32:36;10.90;;;8.02;;
26325;SDS011;14032;52.510;7.342;2022-09-09T05:35:01;9.85;;;8.10;;
26325;SDS011;14032;52.510;7.342;2022-09-09T05:37:28;12.82;;;8.48;;
26325;SDS011;14032;52.510;7.342;2022-09-09T05:39:55;13.13;;;8.48;;
26325;SDS011;14032;52.510;7.342;2022-09-09T05:42:20;12.15;;;8.43;;
26325;SDS011;14032;52.510;7.342;2022-09-09T05:44:46;12.15;;;8.68;;
26325;SDS011;14032;52.510;7.342;2022-09-09T05:47:11;16.42;;;8.73;;
26325;SDS011;14032;52.510;7.342;2022-09-09T05:49:37;11.30;;;7.78;;
26325;SDS011;14032;52.510;7.342;2022-09-09T05:52:03;13.50;;;8.50;;
26325;SDS011;14032;52.510;7.342;2022-09-09T05:54:29;9.95;;;7.07;;
26325;SDS011;14032;52.510;7.342;2022-09-09T05:56:54;11.23;;;6.72;;
26325;SDS011;14032;52.510;7.342;2022-09-09T05:59:20;10.75;;;7.22;;
26325;SDS011;14032;52.510;7.342;2022-09-09T06:01:48;11.98;;;7.90;;
26325;SDS011;14032;52.510;7.342;2022-09-09T06:04:13;16.55;;;9.07;;
26325;SDS011;14032;52.510;7.342;2022-09-09T06:06:39;13.52;;;8.77;;
26325;SDS011;14032;52.510;7.342;2022-09-09T06:09:07;9.65;;;7.72;;
26325;SDS011;14032;52.510;7.342;2022-09-09T06:11:38;13.73;;;9.13;;
26325;SDS011;14032;52.510;7.342;2022-09-09T06:14:04;11.13;;;7.90;;
26325;SDS011;14032;52.510;7.342;2022-09-09T06:16:30;13.43;;;9.00;;
26325;SDS011;14032;52.510;7.342;2022-09-09T06:19:00;11.93;;;8.02;;
26325;SDS011;14032;52.510;7.342;2022-09-09T06:21:30;12.95;;;8.90;;
26325;SDS011;14032;52.510;7.342;2022-09-09T06:23:57;15.98;;;8.43;;
26325;SDS011;14032;52.510;7.342;2022-09-09T06:26:24;9.60;;;7.57;;
26325;SDS011;14032;52.510;7.342;2022-09-09T06:28:51;12.48;;;8.63;;
26325;SDS011;14032;52.510;7.342;2022-09-09T06:31:19;12.90;;;7.40;;
26325;SDS011;14032;52.510;7.342;2022-09-09T06:33:46;11.68;;;8.10;;
26325;SDS011;14032;52.510;7.342;2022-09-09T06:36:16;11.88;;;7.40;;
26325;SDS011;14032;52.510;7.342;2022-09-09T06:38:44;13.13;;;7.53;;
26325;SDS011;14032;52.510;7.342;2022-09-09T06:41:11;12.75;;;7.35;;
26325;SDS011;14032;52.510;7.342;2022-09-09T06:43:37;15.07;;;8.57;;
26325;SDS011;14032;52.510;7.342;2022-09-09T06:46:04;11.73;;;7.68;;
26325;SDS011;14032;52.510;7.342;2022-09-09T06:48:33;16.55;;;7.35;;
26325;SDS011;14032;52.510;7.342;2022-09-09T06:53:29;13.65;;;6.03;;
26325;SDS011;14032;52.510;7.342;2022-09-09T06:55:55;15.85;;;6.70;;
26325;SDS011;14032;52.510;7.342;2022-09-09T06:58:20;11.20;;;5.65;;
26325;SDS011;14032;52.510;7.342;2022-09-09T07:00:48;12.57;;;6.20;;
26325;SDS011;14032;52.510;7.342;2022-09-09T07:03:14;10.90;;;5.80;;
26325;SDS011;14032;52.510;7.342;2022-09-09T07:05:40;9.10;;;5.88;;
26325;SDS011;14032;52.510;7.342;2022-09-09T07:08:05;14.25;;;5.72;;
26325;SDS011;14032;52.510;7.342;2022-09-09T07:10:31;8.93;;;4.72;;
26325;SDS011;14032;52.510;7.342;2022-09-09T07:12:59;12.25;;;5.50;;
26325;SDS011;14032;52.510;7.342;2022-09-09T07:15:25;7.32;;;4.50;;
26325;SDS011;14032;52.510;7.342;2022-09-09T07:17:51;9.70;;;5.40;;
26325;SDS011;14032;52.510;7.342;2022-09-09T07:20:19;9.68;;;5.45;;
26325;SDS011;14032;52.510;7.342;2022-09-09T07:22:45;12.18;;;5.50;;
26325;SDS011;14032;52.510;7.342;2022-09-09T07:25:10;14.02;;;5.25;;
26325;SDS011;14032;52.510;7.342;2022-09-09T07:27:36;11.93;;;4.28;;
26325;SDS011;14032;52.510;7.342;2022-09-09T07:30:02;7.05;;;3.83;;
26325;SDS011;14032;52.510;7.342;2022-09-09T07:32:28;13.02;;;3.83;;
26325;SDS011;14032;52.510;7.342;2022-09-09T07:34:55;9.00;;;4.72;;
26325;SDS011;14032;52.510;7.342;2022-09-09T07:37:23;7.63;;;3.65;;
26325;SDS011;14032;52.510;7.342;2022-09-09T07:39:49;7.97;;;3.88;;
26325;SDS011;14032;52.510;7.342;2022-09-09T07:42:15;7.35;;;4.03;;
26325;SDS011;14032;52.510;7.342;2022-09-09T07:44:41;6.78;;;3.67;;
26325;SDS011;14032;52.510;7.342;2022-09-09T07:47:07;11.32;;;4.40;;
26325;SDS011;14032;52.510;7.342;2022-09-09T07:49:32;8.13;;;4.20;;
26325;SDS011;14032;52.510;7.342;2022-09-09T07:51:58;9.65;;;3.47;;
26325;SDS011;14032;52.510;7.342;2022-09-09T07:54:24;9.73;;;3.28;;
26325;SDS011;14032;52.510;7.342;2022-09-09T07:56:51;8.60;;;3.28;;
26325;SDS011;14032;52.510;7.342;2022-09-09T07:59:17;8.27;;;3.50;;
26325;SDS011;14032;52.510;7.342;2022-09-09T08:01:45;8.77;;;3.22;;
26325;SDS011;14032;52.510;7.342;2022-09-09T08:04:13;11.65;;;3.55;;
26325;SDS011;14032;52.510;7.342;2022-09-09T08:06:42;11.63;;;3.72;;
26325;SDS011;14032;52.510;7.342;2022-09-09T08:09:09;9.80;;;3.63;;
26325;SDS011;14032;52.510;7.342;2022-09-09T08:11:36;8.55;;;3.20;;
26325;SDS011;14032;52.510;7.342;2022-09-09T08:14:03;8.68;;;3.22;;
26325;SDS011;14032;52.510;7.342;2022-09-09T08:16:30;11.57;;;3.00;;
26325;SDS011;14032;52.510;7.342;2022-09-09T08:18:57;10.93;;;3.53;;
26325;SDS011;14032;52.510;7.342;2022-09-09T08:21:25;8.88;;;2.65;;
26325;SDS011;14032;52.510;7.342;2022-09-09T08:23:56;8.30;;;3.10;;
26325;SDS011;14032;52.510;7.342;2022-09-09T08:26:27;7.28;;;2.85;;
26325;SDS011;14032;52.510;7.342;2022-09-09T08:28:57;6.15;;;2.28;;
26325;SDS011;14032;52.510;7.342;2022-09-09T08:33:53;9.38;;;3.17;;
26325;SDS011;14032;52.510;7.342;2022-09-09T08:36:20;7.15;;;2.83;;
26325;SDS011;14032;52.510;7.342;2022-09-09T08:38:51;12.05;;;2.83;;
26325;SDS011;14032;52.510;7.342;2022-09-09T08:44:31;12.07;;;3.45;;
26325;SDS011;14032;52.510;7.342;2022-09-09T08:52:40;7.57;;;2.00;;
26325;SDS011;14032;52.510;7.342;2022-09-09T08:57:48;8.23;;;2.15;;
26325;SDS011;14032;52.510;7.342;2022-09-09T09:00:17;10.10;;;2.55;;
26325;SDS011;14032;52.510;7.342;2022-09-09T09:02:59;11.52;;;2.42;;
26325;SDS011;14032;52.510;7.342;2022-09-09T09:05:46;9.68;;;2.65;;
26325;SDS011;14032;52.510;7.342;2022-09-09T09:08:31;8.75;;;2.47;;
26325;SDS011;14032;52.510;7.342;2022-09-09T09:11:06;15.80;;;2.33;;
26325;SDS011;14032;52.510;7.342;2022-09-09T09:13:43;9.60;;;2.53;;
26325;SDS011;14032;52.510;7.342;2022-09-09T09:16:13;12.85;;;2.35;;
26325;SDS011;14032;52.510;7.342;2022-09-09T09:18:47;8.50;;;2.17;;
26325;SDS011;14032;52.510;7.342;2022-09-09T09:21:17;10.60;;;2.38;;
26325;SDS011;14032;52.510;7.342;2022-09-09T09:24:09;12.05;;;2.45;;
26325;SDS011;14032;52.510;7.342;2022-09-09T09:26:42;9.60;;;2.25;;
26325;SDS011;14032;52.510;7.342;2022-09-09T09:29:10;10.40;;;2.15;;
26325;SDS011;14032;52.510;7.342;2022-09-09T09:31:51;8.88;;;2.10;;
26325;SDS011;14032;52.510;7.342;2022-09-09T09:34:21;7.85;;;2.65;;
26325;SDS011;14032;52.510;7.342;2022-09-09T09:36:55;6.03;;;1.80;;
26325;SDS011;14032;52.510;7.342;2022-09-09T09:39:40;10.70;;;2.13;;
26325;SDS011;14032;52.510;7.342;2022-09-09T09:42:12;10.60;;;2.45;;
26325;SDS011;14032;52.510;7.342;2022-09-09T09:44:39;10.18;;;2.50;;
26325;SDS011;14032;52.510;7.342;2022-09-09T09:49:32;14.00;;;2.88;;
26325;SDS011;14032;52.510;7.342;2022-09-09T09:52:02;7.32;;;2.10;;
26325;SDS011;14032;52.510;7.342;2022-09-09T09:54:29;11.57;;;2.58;;
26325;SDS011;14032;52.510;7.342;2022-09-09T09:57:07;10.02;;;2.80;;
26325;SDS011;14032;52.510;7.342;2022-09-09T09:59:37;9.13;;;3.22;;
26325;SDS011;14032;52.510;7.342;2022-09-09T10:04:43;15.20;;;3.83;;
26325;SDS011;14032;52.510;7.342;2022-09-09T10:07:11;11.00;;;3.67;;
26325;SDS011;14032;52.510;7.342;2022-09-09T10:09:37;11.00;;;3.35;;
26325;SDS011;14032;52.510;7.342;2022-09-09T10:15:02;10.18;;;3.47;;
26325;SDS011;14032;52.510;7.342;2022-09-09T10:38:13;11.73;;;2.30;;
26325;SDS011;14032;52.510;7.342;2022-09-09T10:43:09;8.00;;;1.42;;
26325;SDS011;14032;52.510;7.342;2022-09-09T10:46:01;8.27;;;1.88;;
26325;SDS011;14032;52.510;7.342;2022-09-09T10:51:31;7.45;;;1.77;;
26325;SDS011;14032;52.510;7.342;2022-09-09T10:54:11;9.15;;;1.70;;
26325;SDS011;14032;52.510;7.342;2022-09-09T10:56:55;11.00;;;1.67;;
26325;SDS011;14032;52.510;7.342;2022-09-09T10:59:43;7.05;;;1.63;;
26325;SDS011;14032;52.510;7.342;2022-09-09T11:02:18;11.73;;;1.73;;
26325;SDS011;14032;52.510;7.342;2022-09-09T11:04:53;7.18;;;1.60;;
26325;SDS011;14032;52.510;7.342;2022-09-09T11:07:29;10.23;;;1.88;;
26325;SDS011;14032;52.510;7.342;2022-09-09T11:10:04;9.10;;;1.90;;
26325;SDS011;14032;52.510;7.342;2022-09-09T11:12:41;5.68;;;1.40;;
26325;SDS011;14032;52.510;7.342;2022-09-09T11:15:19;6.70;;;2.15;;
26325;SDS011;14032;52.510;7.342;2022-09-09T11:17:56;7.70;;;1.48;;
26325;SDS011;14032;52.510;7.342;2022-09-09T11:20:26;5.22;;;1.60;;
26325;SDS011;14032;52.510;7.342;2022-09-09T11:22:56;6.63;;;1.30;;
26325;SDS011;14032;52.510;7.342;2022-09-09T11:44:49;7.20;;;1.40;;
26325;SDS011;14032;52.510;7.342;2022-09-09T11:47:23;8.13;;;1.65;;
26325;SDS011;14032;52.510;7.342;2022-09-09T11:49:54;6.90;;;1.20;;
26325;SDS011;14032;52.510;7.342;2022-09-09T11:53:02;5.68;;;1.40;;
26325;SDS011;14032;52.510;7.342;2022-09-09T11:55:29;4.03;;;0.85;;
26325;SDS011;14032;52.510;7.342;2022-09-09T12:00:32;5.60;;;1.15;;
26325;SDS011;14032;52.510;7.342;2022-09-09T12:02:58;5.65;;;1.17;;
26325;SDS011;14032;52.510;7.342;2022-09-09T12:05:24;3.85;;;0.80;;
26325;SDS011;14032;52.510;7.342;2022-09-09T12:08:09;5.47;;;1.02;;
26325;SDS011;14032;52.510;7.342;2022-09-09T12:10:52;7.75;;;1.00;;
26325;SDS011;14032;52.510;7.342;2022-09-09T12:13:28;4.97;;;1.00;;
26325;SDS011;14032;52.510;7.342;2022-09-09T12:15:56;4.63;;;0.90;;
26325;SDS011;14032;52.510;7.342;2022-09-09T12:18:31;8.73;;;1.10;;
26325;SDS011;14032;52.510;7.342;2022-09-09T12:23:55;4.25;;;1.00;;
26325;SDS011;14032;52.510;7.342;2022-09-09T12:27:29;4.20;;;0.82;;
26325;SDS011;14032;52.510;7.342;2022-09-09T12:29:50;4.15;;;1.20;;
26325;SDS011;14032;52.510;7.342;2022-09-09T12:32:29;6.80;;;1.10;;
26325;SDS011;14032;52.510;7.342;2022-09-09T12:34:56;4.70;;;1.10;;
26325;SDS011;14032;52.510;7.342;2022-09-09T12:37:35;4.32;;;1.15;;
26325;SDS011;14032;52.510;7.342;2022-09-09T12:40:04;4.57;;;0.95;;
26325;SDS011;14032;52.510;7.342;2022-09-09T12:47:53;4.93;;;1.30;;
26325;SDS011;14032;52.510;7.342;2022-09-09T12:50:22;7.45;;;1.52;;
26325;SDS011;14032;52.510;7.342;2022-09-09T12:52:53;5.68;;;1.50;;
26325;SDS011;14032;52.510;7.342;2022-09-09T12:55:49;6.38;;;1.20;;
26325;SDS011;14032;52.510;7.342;2022-09-09T12:58:17;5.10;;;1.20;;
26325;SDS011;14032;52.510;7.342;2022-09-09T13:00:51;6.35;;;1.08;;
26325;SDS011;14032;52.510;7.342;2022-09-09T13:03:19;7.25;;;1.65;;
26325;SDS011;14032;52.510;7.342;2022-09-09T13:05:48;7.90;;;1.27;;
26325;SDS011;14032;52.510;7.342;2022-09-09T13:08:15;5.22;;;1.00;;
26325;SDS011;14032;52.510;7.342;2022-09-09T13:10:53;4.38;;;1.17;;
26325;SDS011;14032;52.510;7.342;2022-09-09T13:13:21;4.88;;;1.08;;
26325;SDS011;14032;52.510;7.342;2022-09-09T13:15:52;5.28;;;1.48;;
26325;SDS011;14032;52.510;7.342;2022-09-09T13:18:24;5.97;;;1.08;;
26325;SDS011;14032;52.510;7.342;2022-09-09T13:21:03;6.03;;;0.98;;
26325;SDS011;14032;52.510;7.342;2022-09-09T13:23:33;7.38;;;1.23;;
26325;SDS011;14032;52.510;7.342;2022-09-09T13:26:01;4.35;;;0.85;;
26325;SDS011;14032;52.510;7.342;2022-09-09T13:28:29;7.85;;;1.05;;
26325;SDS011;14032;52.510;7.342;2022-09-09T13:33:37;3.88;;;1.02;;
26325;SDS011;14032;52.510;7.342;2022-09-09T13:38:32;3.38;;;0.90;;
26325;SDS011;14032;52.510;7.342;2022-09-09T13:41:02;4.72;;;0.93;;
26325;SDS011;14032;52.510;7.342;2022-09-09T13:43:51;4.53;;;0.85;;
26325;SDS011;14032;52.510;7.342;2022-09-09T13:49:18;6.55;;;1.13;;
26325;SDS011;14032;52.510;7.342;2022-09-09T13:52:09;5.45;;;1.02;;
26325;SDS011;14032;52.510;7.342;2022-09-09T13:54:36;4.13;;;0.65;;
26325;SDS011;14032;52.510;7.342;2022-09-09T13:57:02;3.70;;;0.98;;
26325;SDS011;14032;52.510;7.342;2022-09-09T13:59:29;4.78;;;1.25;;
26325;SDS011;14032;52.510;7.342;2022-09-09T14:01:56;4.00;;;1.20;;
26325;SDS011;14032;52.510;7.342;2022-09-09T14:04:22;8.02;;;0.90;;
26325;SDS011;14032;52.510;7.342;2022-09-09T14:06:49;3.47;;;0.70;;
26325;SDS011;14032;52.510;7.342;2022-09-09T14:09:16;7.30;;;1.20;;
26325;SDS011;14032;52.510;7.342;2022-09-09T14:11:43;6.80;;;1.17;;
26325;SDS011;14032;52.510;7.342;2022-09-09T14:14:10;7.40;;;1.30;;
26325;SDS011;14032;52.510;7.342;2022-09-09T14:16:36;4.97;;;0.90;;
26325;SDS011;14032;52.510;7.342;2022-09-09T14:19:02;5.40;;;0.95;;
26325;SDS011;14032;52.510;7.342;2022-09-09T14:21:28;6.03;;;1.25;;
26325;SDS011;14032;52.510;7.342;2022-09-09T14:23:54;4.22;;;0.82;;
26325;SDS011;14032;52.510;7.342;2022-09-09T14:26:20;3.90;;;0.80;;
26325;SDS011;14032;52.510;7.342;2022-09-09T14:28:47;3.60;;;0.85;;
26325;SDS011;14032;52.510;7.342;2022-09-09T14:31:13;6.43;;;1.17;;
26325;SDS011;14032;52.510;7.342;2022-09-09T14:33:39;12.75;;;1.10;;
26325;SDS011;14032;52.510;7.342;2022-09-09T14:36:05;6.65;;;1.15;;
26325;SDS011;14032;52.510;7.342;2022-09-09T14:38:32;5.82;;;1.10;;
26325;SDS011;14032;52.510;7.342;2022-09-09T14:41:03;7.57;;;1.08;;
26325;SDS011;14032;52.510;7.342;2022-09-09T14:43:29;4.30;;;0.98;;
26325;SDS011;14032;52.510;7.342;2022-09-09T14:45:57;6.97;;;0.98;;
26325;SDS011;14032;52.510;7.342;2022-09-09T14:48:32;6.25;;;1.38;;
26325;SDS011;14032;52.510;7.342;2022-09-09T14:51:04;6.32;;;1.02;;
26325;SDS011;14032;52.510;7.342;2022-09-09T14:53:31;8.05;;;1.10;;
26325;SDS011;14032;52.510;7.342;2022-09-09T14:56:03;13.98;;;1.58;;
26325;SDS011;14032;52.510;7.342;2022-09-09T14:58:30;5.13;;;0.77;;
26325;SDS011;14032;52.510;7.342;2022-09-09T15:01:01;3.00;;;0.82;;
26325;SDS011;14032;52.510;7.342;2022-09-09T15:03:30;2.70;;;0.95;;
26325;SDS011;14032;52.510;7.342;2022-09-09T15:05:56;6.75;;;1.15;;
26325;SDS011;14032;52.510;7.342;2022-09-09T15:08:23;3.85;;;1.00;;
26325;SDS011;14032;52.510;7.342;2022-09-09T15:10:49;5.28;;;1.17;;
26325;SDS011;14032;52.510;7.342;2022-09-09T15:13:15;4.70;;;0.95;;
26325;SDS011;14032;52.510;7.342;2022-09-09T15:15:43;3.95;;;1.15;;
26325;SDS011;14032;52.510;7.342;2022-09-09T15:18:09;5.68;;;1.48;;
26325;SDS011;14032;52.510;7.342;2022-09-09T15:20:34;5.05;;;1.83;;
26325;SDS011;14032;52.510;7.342;2022-09-09T15:23:02;7.93;;;1.45;;
26325;SDS011;14032;52.510;7.342;2022-09-09T15:25:28;3.58;;;1.17;;
26325;SDS011;14032;52.510;7.342;2022-09-09T15:27:53;6.80;;;1.77;;
26325;SDS011;14032;52.510;7.342;2022-09-09T15:30:19;6.75;;;1.50;;
26325;SDS011;14032;52.510;7.342;2022-09-09T15:32:44;7.55;;;1.35;;
26325;SDS011;14032;52.510;7.342;2022-09-09T15:35:10;6.28;;;1.08;;
26325;SDS011;14032;52.510;7.342;2022-09-09T15:37:35;3.85;;;1.02;;
26325;SDS011;14032;52.510;7.342;2022-09-09T15:40:01;3.08;;;0.70;;
26325;SDS011;14032;52.510;7.342;2022-09-09T15:42:27;4.60;;;0.90;;
26325;SDS011;14032;52.510;7.342;2022-09-09T15:44:52;3.03;;;0.82;;
26325;SDS011;14032;52.510;7.342;2022-09-09T15:47:18;2.22;;;0.90;;
26325;SDS011;14032;52.510;7.342;2022-09-09T15:49:44;2.08;;;0.57;;
26325;SDS011;14032;52.510;7.342;2022-09-09T15:52:10;3.05;;;0.80;;
26325;SDS011;14032;52.510;7.342;2022-09-09T15:54:36;4.47;;;0.70;;
26325;SDS011;14032;52.510;7.342;2022-09-09T15:57:04;2.85;;;0.68;;
26325;SDS011;14032;52.510;7.342;2022-09-09T15:59:31;3.08;;;0.57;;
26325;SDS011;14032;52.510;7.342;2022-09-09T16:01:58;3.70;;;0.85;;
26325;SDS011;14032;52.510;7.342;2022-09-09T16:04:25;2.15;;;0.50;;
26325;SDS011;14032;52.510;7.342;2022-09-09T16:06:52;2.63;;;0.95;;
26325;SDS011;14032;52.510;7.342;2022-09-09T16:09:19;2.65;;;0.57;;
26325;SDS011;14032;52.510;7.342;2022-09-09T16:11:45;2.03;;;0.60;;
26325;SDS011;14032;52.510;7.342;2022-09-09T16:14:12;5.10;;;1.05;;
26325;SDS011;14032;52.510;7.342;2022-09-09T16:16:38;4.97;;;0.80;;
26325;SDS011;14032;52.510;7.342;2022-09-09T16:19:05;3.70;;;0.90;;
26325;SDS011;14032;52.510;7.342;2022-09-09T16:21:33;6.32;;;0.88;;
26325;SDS011;14032;52.510;7.342;2022-09-09T16:24:02;2.92;;;0.70;;
26325;SDS011;14032;52.510;7.342;2022-09-09T16:26:30;3.90;;;0.70;;
26325;SDS011;14032;52.510;7.342;2022-09-09T16:28:57;8.50;;;1.38;;
26325;SDS011;14032;52.510;7.342;2022-09-09T16:31:24;6.57;;;1.40;;
26325;SDS011;14032;52.510;7.342;2022-09-09T16:33:51;5.10;;;0.95;;
26325;SDS011;14032;52.510;7.342;2022-09-09T16:36:21;5.53;;;1.23;;
26325;SDS011;14032;52.510;7.342;2022-09-09T16:38:51;5.53;;;1.02;;
26325;SDS011;14032;52.510;7.342;2022-09-09T16:41:22;3.60;;;0.82;;
26325;SDS011;14032;52.510;7.342;2022-09-09T16:43:55;3.85;;;1.27;;
26325;SDS011;14032;52.510;7.342;2022-09-09T16:46:23;4.97;;;0.90;;
26325;SDS011;14032;52.510;7.342;2022-09-09T16:48:50;3.80;;;0.95;;
26325;SDS011;14032;52.510;7.342;2022-09-09T16:51:20;6.05;;;1.60;;
26325;SDS011;14032;52.510;7.342;2022-09-09T16:53:51;4.18;;;1.20;;
26325;SDS011;14032;52.510;7.342;2022-09-09T16:56:18;7.18;;;1.17;;
26325;SDS011;14032;52.510;7.342;2022-09-09T16:58:54;7.70;;;1.30;;
26325;SDS011;14032;52.510;7.342;2022-09-09T17:01:22;6.28;;;1.10;;
26325;SDS011;14032;52.510;7.342;2022-09-09T17:03:52;3.22;;;0.85;;
26325;SDS011;14032;52.510;7.342;2022-09-09T17:06:26;5.75;;;1.25;;
26325;SDS011;14032;52.510;7.342;2022-09-09T17:08:57;3.78;;;1.00;;
26325;SDS011;14032;52.510;7.342;2022-09-09T17:11:25;4.78;;;1.08;;
26325;SDS011;14032;52.510;7.342;2022-09-09T17:13:51;5.43;;;1.20;;
26325;SDS011;14032;52.510;7.342;2022-09-09T17:16:19;3.83;;;0.80;;
26325;SDS011;14032;52.510;7.342;2022-09-09T17:18:49;4.10;;;0.88;;
26325;SDS011;14032;52.510;7.342;2022-09-09T17:21:17;5.68;;;1.30;;